Arnoldsburg, West Virginia
Current Conditions -  °F | °C
As of 3:54 PM on Friday 28 Nov 2014 (Local Time) from KCRW Reporting Station
Broken Clouds Broken Clouds  
Wind Chill: 26°   Ceiling: 11000
Heat Index: 32°   Visibility: 10mi
Dew Point: 20°   Wind: 6mph
Humidity: 61%   Direction: 220°SW
Pressure: 30.28"   Gusts: NA
Location:  38.79°N, 81.13°W
Report Text: KCRW 282054Z 22005KT 10SM SCT027 BKN110 BKN180 00/M07 A3028 RMK AO2 SLP263 BKN V SCT T00001067 56020
Loading
Personal Weather Stations






























Interactive Weather Map New forecast layout! Learn more

10-Day Weather Forecast

Advertisements
Track Severe Weather on mobile